Time;durP1;ratioP1;P1;durP2;ratioP2;P2;SDS_P1;SDS_P2;PMS_P1;PMS_P2;Temp;Humidity;BMP_temperature;BMP_pressure;BME280_temperature;BME280_humidity;BME280_pressure;Samples;Min_cycle;Max_cycle;Signal;HPM_P1;HPM_P2
2023/08/31 00:00:45;;;;;;;2.03;1.77;;;;;;;14.42;100.00;97563.16;5093539;28;20279;-74
2023/08/31 00:03:13;;;;;;;2.70;1.77;;;;;;;14.53;100.00;97562.16;5093211;28;20256;-74
2023/08/31 00:05:44;;;;;;;2.97;1.80;;;;;;;14.47;100.00;97572.00;5093259;28;20227;-74
2023/08/31 00:08:11;;;;;;;2.30;1.70;;;;;;;14.43;100.00;97559.41;5091416;28;20224;-74
2023/08/31 00:10:38;;;;;;;2.60;2.00;;;;;;;14.42;100.00;97558.59;5093251;28;20706;-74
2023/08/31 00:13:06;;;;;;;2.13;1.70;;;;;;;14.41;100.00;97554.31;5093608;28;20208;-74
2023/08/31 00:15:35;;;;;;;3.40;2.00;;;;;;;14.26;100.00;97550.69;5093348;28;20231;-74
2023/08/31 00:18:05;;;;;;;3.50;1.83;;;;;;;14.30;100.00;97549.13;5093486;28;20220;-74
2023/08/31 00:20:33;;;;;;;5.63;2.13;;;;;;;14.27;100.00;97554.97;5093221;28;20659;-74
2023/08/31 00:23:00;;;;;;;3.03;1.80;;;;;;;14.30;100.00;97547.25;5093387;28;20214;-74
2023/08/31 00:25:28;;;;;;;2.50;2.00;;;;;;;14.20;100.00;97573.91;5093597;28;20206;-74
2023/08/31 00:27:54;;;;;;;3.13;1.93;;;;;;;14.19;100.00;97566.91;5094286;28;20216;-74
2023/08/31 00:30:21;;;;;;;4.07;2.10;;;;;;;14.23;100.00;97567.25;5093353;28;20776;-74
2023/08/31 00:32:48;;;;;;;2.83;2.00;;;;;;;14.16;100.00;97578.09;5093576;28;20208;-74
2023/08/31 00:35:14;;;;;;;3.13;2.20;;;;;;;14.11;100.00;97578.06;5093186;28;20623;-74
2023/08/31 00:37:40;;;;;;;4.13;2.30;;;;;;;14.13;100.00;97578.63;5093480;28;20210;-74
2023/08/31 00:40:08;;;;;;;3.87;2.30;;;;;;;14.20;100.00;97584.59;5093441;28;20281;-74
2023/08/31 00:42:34;;;;;;;2.73;1.80;;;;;;;14.22;100.00;97582.50;5093476;28;20285;-74
2023/08/31 00:45:02;;;;;;;2.73;2.03;;;;;;;14.17;100.00;97592.28;5093526;28;20210;-74
2023/08/31 00:47:28;;;;;;;2.83;2.10;;;;;;;14.11;100.00;97585.28;5093502;28;20204;-74
2023/08/31 00:49:55;;;;;;;3.80;2.40;;;;;;;14.16;100.00;97591.47;5093386;28;20227;-74
2023/08/31 00:52:21;;;;;;;2.53;1.83;;;;;;;14.11;100.00;97593.31;5093541;28;20257;-74
2023/08/31 00:54:49;;;;;;;4.57;2.10;;;;;;;14.13;100.00;97600.00;5093260;28;20255;-74
2023/08/31 00:57:15;;;;;;;4.30;1.87;;;;;;;14.14;100.00;97590.94;5093421;28;20287;-74
2023/08/31 00:59:42;;;;;;;2.97;2.13;;;;;;;14.13;100.00;97589.31;5092916;28;20718;-74
2023/08/31 01:02:16;;;;;;;6.57;2.57;;;;;;;14.08;100.00;97575.09;5093070;28;20658;-74
2023/08/31 01:04:56;;;;;;;3.97;2.30;;;;;;;14.09;100.00;97574.84;5093907;28;20181;-75
2023/08/31 01:07:40;;;;;;;3.33;2.13;;;;;;;14.06;100.00;97578.00;5093446;28;20318;-74
2023/08/31 01:10:30;;;;;;;3.03;2.47;;;;;;;14.00;100.00;97571.00;5092994;28;20614;-74
2023/08/31 01:13:21;;;;;;;2.27;1.90;;;;;;;13.92;100.00;97571.44;5093379;28;20373;-74
2023/08/31 01:15:53;;;;;;;3.37;2.60;;;;;;;13.80;100.00;97576.13;5093552;28;20254;-74
2023/08/31 01:18:24;;;;;;;3.70;2.00;;;;;;;13.72;100.00;97578.44;5092453;28;20192;-74
2023/08/31 01:21:03;;;;;;;3.43;2.30;;;;;;;13.71;100.00;97582.19;5095605;28;20631;-74
2023/08/31 01:23:53;;;;;;;3.13;2.17;;;;;;;13.63;100.00;97579.94;5096765;28;20549;-74
2023/08/31 01:26:20;;;;;;;3.43;1.83;;;;;;;13.58;100.00;97582.56;5083150;28;20238;-74
2023/08/31 01:28:47;;;;;;;3.83;2.40;;;;;;;13.49;100.00;97587.53;5096719;28;20234;-74
2023/08/31 01:31:14;;;;;;;3.20;2.27;;;;;;;13.35;100.00;97582.81;5096952;28;20203;-74
2023/08/31 01:33:41;;;;;;;2.80;2.20;;;;;;;13.30;100.00;97580.06;5096297;28;20731;-74
2023/08/31 01:36:18;;;;;;;6.77;2.50;;;;;;;13.29;100.00;97589.13;5096799;28;20265;-74
2023/08/31 01:38:49;;;;;;;4.43;2.40;;;;;;;13.29;100.00;97597.16;5096975;28;20230;-74
2023/08/31 01:41:20;;;;;;;2.93;2.13;;;;;;;13.25;100.00;97593.34;5096939;28;20281;-74
2023/08/31 01:43:48;;;;;;;2.73;2.50;;;;;;;13.27;100.00;97593.91;5096961;28;20189;-74
2023/08/31 01:46:16;;;;;;;3.67;2.37;;;;;;;13.24;100.00;97594.38;5096851;28;20213;-74
2023/08/31 01:48:43;;;;;;;3.73;2.50;;;;;;;13.35;100.00;97606.81;5096498;28;20311;-74
2023/08/31 01:51:11;;;;;;;2.63;2.30;;;;;;;13.37;100.00;97608.19;5096406;28;20214;-74
2023/08/31 01:53:37;;;;;;;3.40;2.30;;;;;;;13.33;100.00;97606.25;5096739;28;20377;-74
2023/08/31 01:56:04;;;;;;;2.83;2.20;;;;;;;13.35;100.00;97607.66;5096428;28;20257;-74
2023/08/31 01:58:31;;;;;;;2.43;2.23;;;;;;;13.41;100.00;97606.66;5096331;28;20653;-74
2023/08/31 02:00:57;;;;;;;2.70;2.40;;;;;;;13.45;100.00;97615.78;5096127;28;20575;-74
2023/08/31 02:03:24;;;;;;;4.80;2.10;;;;;;;13.52;100.00;97608.38;5096235;28;20257;-74
2023/08/31 02:05:50;;;;;;;2.67;2.20;;;;;;;13.49;100.00;97603.56;5096132;28;20203;-74
2023/08/31 02:08:17;;;;;;;3.30;2.43;;;;;;;13.56;100.00;97606.03;5096525;28;20208;-74
2023/08/31 02:10:45;;;;;;;3.90;2.27;;;;;;;13.62;100.00;97605.81;5095081;28;20720;-74
2023/08/31 02:13:11;;;;;;;3.07;2.30;;;;;;;13.53;100.00;97603.84;5096027;28;20208;-74
2023/08/31 02:15:40;;;;;;;3.60;2.20;;;;;;;13.66;100.00;97600.81;5095502;28;20234;-74
2023/08/31 02:18:08;;;;;;;2.23;1.93;;;;;;;13.59;100.00;97602.84;5095973;28;20218;-74
2023/08/31 02:20:35;;;;;;;2.60;2.40;;;;;;;13.68;100.00;97602.19;5095708;28;20223;-74
2023/08/31 02:23:01;;;;;;;3.43;2.20;;;;;;;13.71;100.00;97607.00;5095707;28;20214;-74
2023/08/31 02:25:28;;;;;;;3.77;2.57;;;;;;;13.71;100.00;97612.34;5095488;28;20203;-74
2023/08/31 02:27:55;;;;;;;2.40;2.00;;;;;;;13.65;100.00;97615.25;5095627;28;20207;-74
2023/08/31 02:30:22;;;;;;;3.70;2.43;;;;;;;13.56;100.00;97617.50;5094325;28;20233;-74
2023/08/31 02:32:48;;;;;;;2.93;1.97;;;;;;;13.65;100.00;97609.91;5095477;28;20203;-74
2023/08/31 02:35:15;;;;;;;4.07;2.40;;;;;;;13.65;100.00;97605.34;5095356;28;20255;-74
2023/08/31 02:37:41;;;;;;;3.87;2.20;;;;;;;13.72;100.00;97615.84;5095430;28;20208;-74
2023/08/31 02:40:08;;;;;;;2.87;2.10;;;;;;;13.60;100.00;97621.31;5094987;28;20729;-74
2023/08/31 02:42:35;;;;;;;2.37;2.00;;;;;;;13.65;100.00;97618.69;5095243;28;20206;-74
2023/08/31 02:45:02;;;;;;;4.97;2.00;;;;;;;13.72;100.00;97622.00;5096102;28;20638;-74
2023/08/31 02:47:28;;;;;;;5.27;1.93;;;;;;;13.71;100.00;97630.25;5095140;28;20242;-74
2023/08/31 02:49:56;;;;;;;2.47;2.00;;;;;;;13.76;100.00;97628.47;5094758;28;20732;-74
2023/08/31 02:52:22;;;;;;;2.10;1.90;;;;;;;13.69;100.00;97638.50;5094864;28;20211;-74
2023/08/31 02:54:48;;;;;;;2.67;2.00;;;;;;;13.67;100.00;97637.16;5095116;28;20211;-74
2023/08/31 02:57:19;;;;;;;2.43;2.00;;;;;;;13.64;100.00;97630.44;5095003;28;20214;-74
2023/08/31 02:59:46;;;;;;;2.40;2.10;;;;;;;13.68;100.00;97636.91;5094956;28;20644;-74
2023/08/31 03:02:12;;;;;;;2.70;2.30;;;;;;;13.57;100.00;97619.13;5094899;28;20210;-74
2023/08/31 03:04:39;;;;;;;2.30;2.03;;;;;;;13.61;100.00;97620.25;5094893;28;20202;-74
2023/08/31 03:07:06;;;;;;;4.20;2.00;;;;;;;13.47;100.00;97627.00;5095068;28;20199;-74
2023/08/31 03:09:32;;;;;;;4.10;2.27;;;;;;;13.50;100.00;97628.38;5094816;28;20225;-73
2023/08/31 03:11:58;;;;;;;2.63;2.20;;;;;;;13.43;100.00;97625.09;5095155;28;20203;-74
2023/08/31 03:14:25;;;;;;;2.70;2.17;;;;;;;13.35;100.00;97631.69;5095018;28;20213;-73
2023/08/31 03:16:52;;;;;;;2.60;2.10;;;;;;;13.41;100.00;97624.53;5094597;28;20350;-74
2023/08/31 03:19:19;;;;;;;2.37;2.17;;;;;;;13.39;100.00;97631.97;5094465;28;20258;-74
2023/08/31 03:21:45;;;;;;;3.10;2.40;;;;;;;13.42;100.00;97636.81;5094692;28;20206;-74
2023/08/31 03:24:11;;;;;;;3.80;2.27;;;;;;;13.32;100.00;97631.34;5094056;28;20689;-74
2023/08/31 03:26:38;;;;;;;2.50;2.03;;;;;;;13.37;100.00;97636.75;5094460;28;20217;-74
2023/08/31 03:29:04;;;;;;;2.57;2.07;;;;;;;13.31;100.00;97649.25;5094031;28;20234;-74
2023/08/31 03:31:31;;;;;;;4.43;2.23;;;;;;;13.17;100.00;97642.63;5094398;28;20202;-74
2023/08/31 03:33:58;;;;;;;3.87;2.30;;;;;;;13.15;100.00;97646.59;5094199;28;20263;-74
2023/08/31 03:36:24;;;;;;;4.50;2.30;;;;;;;13.19;100.00;97645.84;5094060;28;20227;-74
2023/08/31 03:38:51;;;;;;;5.43;2.33;;;;;;;13.27;100.00;97645.44;5094186;28;20223;-74
2023/08/31 03:41:17;;;;;;;2.33;2.13;;;;;;;13.20;100.00;97638.66;5094280;28;20206;-74
2023/08/31 03:43:43;;;;;;;2.30;2.00;;;;;;;13.20;100.00;97636.00;5093997;28;20548;-74
2023/08/31 03:46:10;;;;;;;2.67;2.27;;;;;;;13.35;100.00;97631.69;5093931;28;20211;-74
2023/08/31 03:48:36;;;;;;;2.20;2.00;;;;;;;13.37;100.00;97639.41;5093922;28;20206;-74
2023/08/31 03:51:03;;;;;;;2.43;2.23;;;;;;;13.25;100.00;97652.88;5093925;28;20598;-74
2023/08/31 03:53:30;;;;;;;5.23;2.13;;;;;;;13.19;100.00;97650.38;5094031;28;20217;-74
2023/08/31 03:55:56;;;;;;;3.33;2.37;;;;;;;13.12;100.00;97663.88;5093504;28;20229;-74
2023/08/31 03:58:22;;;;;;;4.43;2.20;;;;;;;13.28;100.00;97665.72;5093855;28;20206;-74
2023/08/31 04:00:52;;;;;;;8.63;2.67;;;;;;;13.29;100.00;97664.66;5090356;28;20575;-74
2023/08/31 04:03:18;;;;;;;5.13;2.50;;;;;;;13.20;100.00;97658.13;5073101;28;20294;-74
2023/08/31 04:05:44;;;;;;;2.50;2.30;;;;;;;13.18;100.00;97667.44;5073337;28;20204;-74
2023/08/31 04:08:11;;;;;;;4.23;2.43;;;;;;;13.24;100.00;97667.28;5074172;28;20218;-74
2023/08/31 04:10:37;;;;;;;4.03;2.37;;;;;;;13.21;100.00;97667.75;5073113;28;20764;-74
2023/08/31 04:13:04;;;;;;;2.77;2.43;;;;;;;13.15;100.00;97673.28;5073616;28;20210;-74
2023/08/31 04:15:30;;;;;;;3.17;2.03;;;;;;;13.14;100.00;97669.78;5073195;28;20580;-74
2023/08/31 04:17:57;;;;;;;3.70;2.47;;;;;;;13.19;100.00;97669.06;5073673;28;20212;-74
2023/08/31 04:20:23;;;;;;;3.67;2.50;;;;;;;13.16;100.00;97664.22;5073643;28;20227;-74
2023/08/31 04:22:50;;;;;;;2.60;2.40;;;;;;;13.18;100.00;97664.78;5073221;28;20316;-74
2023/08/31 04:25:16;;;;;;;2.93;2.33;;;;;;;13.17;100.00;97660.50;5073395;28;20199;-77
2023/08/31 04:27:45;;;;;;;2.37;2.17;;;;;;;13.23;100.00;97673.66;5075559;28;20207;-76
2023/08/31 04:30:12;;;;;;;2.90;2.40;;;;;;;13.11;100.00;97678.28;5105122;28;20230;-76
2023/08/31 04:32:38;;;;;;;3.57;2.60;;;;;;;13.03;100.00;97676.00;5087439;28;20959;-76
2023/08/31 04:35:06;;;;;;;3.90;2.30;;;;;;;13.21;100.00;97680.31;5084298;28;20211;-76
2023/08/31 04:37:35;;;;;;;4.00;2.50;;;;;;;13.13;100.00;97681.53;5082334;28;20233;-76
2023/08/31 04:40:03;;;;;;;3.60;2.57;;;;;;;13.09;100.00;97677.72;5084098;28;20231;-75
2023/08/31 04:42:30;;;;;;;3.60;2.63;;;;;;;13.03;100.00;97684.03;5076489;28;20269;-76
2023/08/31 04:44:56;;;;;;;5.33;2.70;;;;;;;13.07;100.00;97685.16;5075496;28;20202;-76
2023/08/31 04:47:22;;;;;;;5.23;2.77;;;;;;;13.18;100.00;97683.47;5072983;28;20673;-75
2023/08/31 04:49:49;;;;;;;3.70;2.67;;;;;;;13.14;100.00;97688.47;5074125;28;20538;-75
2023/08/31 04:52:15;;;;;;;3.77;2.80;;;;;;;13.10;100.00;97694.53;5080650;28;20195;-75
2023/08/31 04:54:42;;;;;;;3.97;2.67;;;;;;;13.01;100.00;97696.81;5096544;28;20217;-76
2023/08/31 04:57:08;;;;;;;4.50;2.60;;;;;;;13.04;100.00;97690.19;5098379;28;20226;-75
2023/08/31 04:59:34;;;;;;;3.00;2.60;;;;;;;13.06;100.00;97691.56;5099146;28;20227;-76
2023/08/31 05:02:01;;;;;;;3.73;2.50;;;;;;;13.03;100.00;97702.69;5097391;28;20213;-76
2023/08/31 05:04:28;;;;;;;4.70;2.80;;;;;;;13.04;100.00;97703.53;5096867;28;20324;-76
2023/08/31 05:06:54;;;;;;;4.93;3.13;;;;;;;13.04;100.00;97707.00;5097306;28;20210;-76
2023/08/31 05:09:21;;;;;;;5.17;2.33;;;;;;;12.96;100.00;97711.88;5097715;28;20235;-76
2023/08/31 05:11:47;;;;;;;5.57;2.80;;;;;;;12.99;100.00;97706.13;5096690;28;20210;-76
2023/08/31 05:14:13;;;;;;;4.57;2.40;;;;;;;12.94;100.00;97706.00;5097825;28;20206;-76
2023/08/31 05:16:40;;;;;;;4.57;2.60;;;;;;;13.07;100.00;97713.72;5097780;28;20313;-76
2023/08/31 05:19:06;;;;;;;5.10;2.60;;;;;;;12.95;100.00;97719.09;5097250;28;20223;-76
2023/08/31 05:21:32;;;;;;;3.77;2.73;;;;;;;13.14;100.00;97730.38;5096148;28;20205;-74
2023/08/31 05:23:59;;;;;;;4.37;2.60;;;;;;;13.13;100.00;97720.75;5096602;28;20214;-74
2023/08/31 05:26:25;;;;;;;2.80;2.27;;;;;;;13.16;100.00;97715.72;5096224;28;20207;-74
2023/08/31 05:28:51;;;;;;;4.10;2.33;;;;;;;13.23;100.00;97721.72;5095790;28;20603;-74
2023/08/31 05:31:18;;;;;;;3.47;2.47;;;;;;;13.18;100.00;97732.31;5096077;28;20217;-74
2023/08/31 05:33:45;;;;;;;4.57;2.37;;;;;;;13.29;100.00;97743.97;5096232;28;20294;-74
2023/08/31 05:36:11;;;;;;;5.10;2.50;;;;;;;13.38;100.00;97737.97;5095925;28;20226;-74
2023/08/31 05:38:38;;;;;;;5.17;2.67;;;;;;;13.27;100.00;97736.19;5095936;28;20206;-74
2023/08/31 05:41:06;;;;;;;2.67;2.17;;;;;;;13.33;100.00;97737.06;5095710;28;20211;-74
2023/08/31 05:43:35;;;;;;;3.43;2.53;;;;;;;13.29;100.00;97742.09;5096092;28;20602;-74
2023/08/31 05:46:01;;;;;;;4.03;2.90;;;;;;;13.34;100.00;97736.81;5096019;28;20203;-74
2023/08/31 05:48:27;;;;;;;3.47;2.50;;;;;;;13.33;100.00;97735.22;5095794;28;20207;-74
2023/08/31 05:50:55;;;;;;;3.97;2.63;;;;;;;13.23;100.00;97743.06;5096018;28;20222;-75
2023/08/31 05:53:21;;;;;;;4.23;2.70;;;;;;;13.21;100.00;97744.38;5096138;28;20209;-76
2023/08/31 05:55:47;;;;;;;3.97;2.47;;;;;;;13.32;100.00;97744.28;5096439;28;20202;-75
2023/08/31 05:58:14;;;;;;;2.83;2.43;;;;;;;13.34;100.00;97760.06;5096466;28;20209;-76
2023/08/31 06:00:40;;;;;;;4.60;2.30;;;;;;;13.29;100.00;97750.09;5096103;28;20231;-76
2023/08/31 06:03:07;;;;;;;4.20;2.10;;;;;;;13.27;100.00;97757.56;5095982;28;20210;-76
2023/08/31 06:05:35;;;;;;;4.00;2.70;;;;;;;13.34;100.00;97752.84;5095176;28;20258;-76
2023/08/31 06:08:01;;;;;;;5.40;2.73;;;;;;;13.33;100.00;97763.75;5095955;28;20210;-76
2023/08/31 06:10:29;;;;;;;5.07;2.60;;;;;;;13.32;100.00;97760.31;5096183;28;20650;-76
2023/08/31 06:12:55;;;;;;;5.43;2.43;;;;;;;13.32;100.00;97760.31;5095985;28;20260;-75
2023/08/31 06:15:21;;;;;;;4.77;2.50;;;;;;;13.34;100.00;97763.53;5095713;28;20211;-76
2023/08/31 06:17:48;;;;;;;4.67;2.40;;;;;;;13.41;100.00;97774.88;5095336;28;20238;-74
2023/08/31 06:20:14;;;;;;;3.93;2.23;;;;;;;13.56;100.00;97768.97;5095546;28;20223;-74
2023/08/31 06:22:40;;;;;;;2.87;2.23;;;;;;;13.71;100.00;97764.63;5095084;28;20290;-75
2023/08/31 06:25:07;;;;;;;6.17;2.40;;;;;;;13.79;100.00;97777.56;5094999;28;20224;-74
2023/08/31 06:27:35;;;;;;;4.00;2.47;;;;;;;14.00;100.00;97781.31;5094851;28;20662;-74
2023/08/31 06:30:01;;;;;;;6.03;2.03;;;;;;;14.07;100.00;97790.78;5094322;28;20252;-74
2023/08/31 06:32:28;;;;;;;5.13;2.30;;;;;;;14.14;100.00;97795.94;5094596;28;20659;-74
2023/08/31 06:34:54;;;;;;;5.23;2.50;;;;;;;14.11;100.00;97785.78;5095342;28;20227;-75
2023/08/31 06:37:21;;;;;;;4.30;2.30;;;;;;;14.08;100.00;97789.75;5094340;28;20590;-75
2023/08/31 06:39:47;;;;;;;2.70;2.33;;;;;;;14.26;100.00;97794.00;5094747;28;20228;-74
2023/08/31 06:42:13;;;;;;;4.73;2.20;;;;;;;14.39;100.00;97791.75;5094744;28;20226;-74
2023/08/31 06:44:40;;;;;;;3.37;2.47;;;;;;;14.53;100.00;97795.69;5094575;28;20686;-74
2023/08/31 06:47:06;;;;;;;2.80;1.80;;;;;;;14.59;100.00;97800.03;5094453;28;20689;-74
2023/08/31 06:49:34;;;;;;;3.97;2.10;;;;;;;14.73;100.00;97801.28;5094463;28;20223;-74
2023/08/31 06:52:07;;;;;;;5.13;1.90;;;;;;;15.00;100.00;97802.09;5094831;28;20631;-74
2023/08/31 06:54:33;;;;;;;2.70;2.03;;;;;;;15.09;100.00;97805.94;5094820;28;20245;-74
2023/08/31 06:57:00;;;;;;;3.87;2.30;;;;;;;15.22;100.00;97810.88;5094570;28;20344;-74
2023/08/31 06:59:26;;;;;;;4.67;1.97;;;;;;;15.30;100.00;97812.28;5094305;28;20232;-74
2023/08/31 07:01:53;;;;;;;4.90;2.00;;;;;;;15.30;100.00;97813.09;5094579;28;20547;-74
2023/08/31 07:04:19;;;;;;;3.80;2.00;;;;;;;15.28;100.00;97807.16;5094433;28;20233;-74
2023/08/31 07:06:45;;;;;;;4.53;1.90;;;;;;;15.21;100.00;97814.63;5094153;28;20207;-74
2023/08/31 07:09:12;;;;;;;3.23;2.17;;;;;;;15.25;100.00;97813.03;5094258;28;20223;-74
2023/08/31 07:11:38;;;;;;;5.60;2.50;;;;;;;15.13;100.00;97815.06;5094256;28;20206;-74
2023/08/31 07:14:04;;;;;;;3.17;2.07;;;;;;;15.15;100.00;97822.84;5094110;28;20208;-74
2023/08/31 07:16:31;;;;;;;4.97;2.23;;;;;;;15.27;100.00;97823.50;5093731;28;20232;-74
2023/08/31 07:18:57;;;;;;;3.27;1.90;;;;;;;15.28;100.00;97828.59;5094570;28;20250;-74
2023/08/31 07:21:24;;;;;;;3.93;2.03;;;;;;;15.19;100.00;97832.00;5094769;28;20210;-75
2023/08/31 07:23:50;;;;;;;2.57;1.80;;;;;;;15.27;100.00;97828.84;5094014;28;20207;-75
2023/08/31 07:26:16;;;;;;;8.23;2.60;;;;;;;15.22;100.00;97826.94;5094054;28;20196;-75
2023/08/31 07:28:43;;;;;;;4.33;2.00;;;;;;;15.30;100.00;97823.81;5093706;28;20235;-74
2023/08/31 07:31:09;;;;;;;3.50;2.10;;;;;;;15.21;100.00;97838.72;5093777;28;20192;-74
2023/08/31 07:33:36;;;;;;;4.13;1.60;;;;;;;15.27;100.00;97845.72;5093883;28;20204;-74
2023/08/31 07:36:03;;;;;;;4.03;2.13;;;;;;;15.37;100.00;97842.38;5093934;28;20286;-74
2023/08/31 07:38:31;;;;;;;3.63;1.90;;;;;;;15.49;100.00;97846.50;5093748;28;20214;-74
2023/08/31 07:40:57;;;;;;;4.63;2.00;;;;;;;15.60;100.00;97848.19;5093870;28;20210;-74
2023/08/31 07:43:24;;;;;;;4.67;1.93;;;;;;;15.72;100.00;97848.84;5093865;28;20223;-74
2023/08/31 07:45:50;;;;;;;3.63;1.90;;;;;;;15.86;100.00;97865.28;5094006;28;20208;-74
2023/08/31 07:48:17;;;;;;;3.37;2.00;;;;;;;15.94;100.00;97859.44;5093536;28;20204;-74
2023/08/31 07:50:43;;;;;;;2.03;1.83;;;;;;;15.99;100.00;97846.91;5093618;28;20227;-74
2023/08/31 07:53:10;;;;;;;2.70;1.60;;;;;;;16.11;100.00;97858.22;5093780;28;20204;-74
2023/08/31 07:55:36;;;;;;;5.63;2.20;;;;;;;16.24;100.00;97856.97;5093611;28;20203;-74
2023/08/31 07:58:03;;;;;;;5.77;1.77;;;;;;;16.38;100.00;97845.50;5093127;28;20235;-74
2023/08/31 08:00:29;;;;;;;4.70;2.30;;;;;;;16.46;100.00;97858.47;5093542;28;20223;-74
2023/08/31 08:02:55;;;;;;;5.13;1.83;;;;;;;16.46;100.00;97861.16;5093794;28;20566;-74
2023/08/31 08:05:22;;;;;;;2.77;1.87;;;;;;;16.50;100.00;97851.50;5093681;28;20208;-74
2023/08/31 08:07:48;;;;;;;3.77;2.00;;;;;;;16.64;100.00;97849.16;5094056;28;20200;-74
2023/08/31 08:10:15;;;;;;;5.30;2.17;;;;;;;16.67;100.00;97857.50;5093554;28;20269;-74
2023/08/31 08:12:45;;;;;;;4.53;1.83;;;;;;;16.79;100.00;97849.22;5093733;28;20544;-74
2023/08/31 08:15:11;;;;;;;2.27;1.50;;;;;;;17.01;100.00;97847.16;5093149;28;20299;-74
2023/08/31 08:17:38;;;;;;;2.53;1.80;;;;;;;17.32;100.00;97854.22;5093358;28;20220;-74
2023/08/31 08:20:06;;;;;;;3.93;2.00;;;;;;;17.22;100.00;97862.22;5092908;28;20223;-74
2023/08/31 08:22:32;;;;;;;4.63;1.60;;;;;;;17.09;95.36;97863.53;5093655;28;20208;-74
2023/08/31 08:24:58;;;;;;;4.40;1.80;;;;;;;16.98;96.43;97867.28;5093415;28;20207;-74
2023/08/31 08:27:25;;;;;;;3.60;1.90;;;;;;;17.05;96.13;97862.47;5093001;28;20200;-74
2023/08/31 08:29:51;;;;;;;3.00;2.10;;;;;;;16.94;94.97;97868.88;5095589;28;20232;-74
2023/08/31 08:32:17;;;;;;;5.40;1.80;;;;;;;16.82;94.99;97868.28;5097469;28;20207;-74
2023/08/31 08:34:44;;;;;;;3.57;1.97;;;;;;;16.92;95.26;97875.59;5097385;28;20208;-74
2023/08/31 08:37:10;;;;;;;3.83;1.90;;;;;;;16.95;92.36;97881.22;5096650;28;20593;-74
2023/08/31 08:39:37;;;;;;;4.27;2.20;;;;;;;16.84;86.50;97884.13;5096950;28;20594;-74
2023/08/31 08:42:05;;;;;;;4.47;2.33;;;;;;;16.66;82.95;97888.09;5096862;28;20204;-74
2023/08/31 08:44:33;;;;;;;3.77;1.77;;;;;;;16.59;83.25;97879.47;5096809;28;20555;-74
2023/08/31 08:47:01;;;;;;;3.30;1.90;;;;;;;16.73;85.25;97885.19;5097323;28;20212;-74
2023/08/31 08:49:29;;;;;;;3.00;1.83;;;;;;;16.97;95.00;97876.38;5097106;28;20314;-74
2023/08/31 08:51:55;;;;;;;5.00;1.93;;;;;;;17.23;91.18;97874.59;5097309;28;20206;-74
2023/08/31 08:54:23;;;;;;;3.37;1.90;;;;;;;17.44;84.51;97879.78;5097452;28;20204;-73
2023/08/31 08:56:49;;;;;;;3.93;1.70;;;;;;;17.55;90.42;97867.16;5096866;28;20311;-73
2023/08/31 08:59:16;;;;;;;8.23;1.90;;;;;;;17.37;85.69;97879.19;5085445;28;20224;-73
2023/08/31 09:01:42;;;;;;;4.67;1.93;;;;;;;17.50;82.79;97894.84;5076982;28;20219;-74
2023/08/31 09:04:10;;;;;;;3.47;1.87;;;;;;;17.49;82.77;97893.22;5076757;28;20209;-73
2023/08/31 09:06:37;;;;;;;3.77;2.07;;;;;;;17.42;88.18;97889.97;5076803;28;20266;-74
2023/08/31 09:09:04;;;;;;;2.10;1.80;;;;;;;17.26;85.49;97888.31;5076146;28;20224;-74
2023/08/31 09:11:30;;;;;;;4.30;1.80;;;;;;;17.35;88.52;97892.09;5076729;28;20386;-74
2023/08/31 09:13:58;;;;;;;4.63;2.07;;;;;;;17.23;90.51;97898.78;5076240;28;20291;-74
2023/08/31 09:16:32;;;;;;;3.27;2.10;;;;;;;17.55;89.21;97902.09;5076078;28;20567;-74
2023/08/31 09:18:59;;;;;;;4.77;1.90;;;;;;;17.65;85.37;97896.75;5076337;28;20236;-73
2023/08/31 09:21:40;;;;;;;3.93;1.67;;;;;;;17.92;86.41;97900.78;5076443;28;20250;-73
2023/08/31 09:24:10;;;;;;;3.33;2.10;;;;;;;18.03;84.84;97907.78;5076119;28;20204;-73
2023/08/31 09:26:39;;;;;;;4.70;2.20;;;;;;;18.32;85.92;97903.44;5076018;28;20767;-73
2023/08/31 09:29:09;;;;;;;4.00;1.90;;;;;;;18.33;80.04;97894.31;5075828;28;20236;-73
2023/08/31 09:31:36;;;;;;;5.10;1.80;;;;;;;18.47;80.03;97908.84;5076510;28;20213;-73
2023/08/31 09:34:03;;;;;;;4.07;2.03;;;;;;;18.15;76.73;97902.91;5075796;28;20231;-73
2023/08/31 09:36:30;;;;;;;3.23;2.10;;;;;;;18.05;73.93;97902.94;5076040;28;20205;-73
2023/08/31 09:39:00;;;;;;;4.27;1.93;;;;;;;18.12;75.04;97908.84;5075888;28;20228;-73
2023/08/31 09:41:26;;;;;;;4.07;1.80;;;;;;;18.16;70.41;97907.25;5075914;28;20294;-73
2023/08/31 09:43:53;;;;;;;4.23;2.13;;;;;;;18.17;66.41;97911.53;5076129;28;20204;-73
2023/08/31 09:46:21;;;;;;;2.60;1.87;;;;;;;18.07;71.92;97908.03;5075742;28;20257;-73
2023/08/31 09:48:49;;;;;;;3.87;2.10;;;;;;;17.94;67.80;97905.88;5074422;28;20715;-73
2023/08/31 09:51:19;;;;;;;3.93;1.80;;;;;;;17.62;68.53;97916.91;5075989;28;20303;-73
2023/08/31 09:53:50;;;;;;;2.47;1.87;;;;;;;17.34;67.77;97911.97;5075576;28;20207;-73
2023/08/31 09:56:24;;;;;;;3.13;1.80;;;;;;;17.34;72.12;97916.53;5075573;28;20283;-73
2023/08/31 09:58:51;;;;;;;2.47;1.97;;;;;;;17.26;67.89;97909.81;5075280;28;20691;-73
2023/08/31 10:01:18;;;;;;;2.07;1.77;;;;;;;17.30;66.30;97910.91;5075939;28;20201;-73
2023/08/31 10:03:44;;;;;;;3.97;1.90;;;;;;;17.44;66.43;97917.41;5075358;28;20215;-73
2023/08/31 10:06:12;;;;;;;2.80;1.70;;;;;;;17.66;64.42;97918.00;5075529;28;20563;-73
2023/08/31 10:08:40;;;;;;;4.13;1.70;;;;;;;17.90;63.42;97915.56;5075337;28;20287;-74
2023/08/31 10:11:06;;;;;;;2.63;2.10;;;;;;;18.07;62.24;97921.50;5075421;28;20211;-74
2023/08/31 10:13:36;;;;;;;3.50;1.80;;;;;;;18.11;62.87;97919.88;5075212;28;20200;-73
2023/08/31 10:16:05;;;;;;;2.67;1.77;;;;;;;17.79;62.57;97922.84;5075287;28;20732;-74
2023/08/31 10:18:35;;;;;;;3.63;1.90;;;;;;;17.84;61.29;97922.03;5075208;28;20224;-76
2023/08/31 10:21:03;;;;;;;3.03;2.07;;;;;;;17.79;61.52;97919.34;5075297;28;20318;-76
2023/08/31 10:23:30;;;;;;;3.23;1.70;;;;;;;17.78;69.37;97910.44;5075153;28;20212;-76
2023/08/31 10:25:56;;;;;;;3.17;1.80;;;;;;;17.74;62.68;97913.97;5075017;28;20208;-76
2023/08/31 10:28:24;;;;;;;3.83;2.07;;;;;;;17.74;65.01;97917.44;5074209;28;20682;-75
2023/08/31 10:31:16;;;;;;;6.43;2.00;;;;;;;17.68;60.61;97928.44;5075034;28;20188;-76
2023/08/31 10:33:44;;;;;;;4.80;2.00;;;;;;;17.60;61.06;97927.09;5074947;28;20203;-76
2023/08/31 10:36:13;;;;;;;5.10;2.10;;;;;;;17.80;63.37;97929.00;5074658;28;20205;-76
2023/08/31 10:38:40;;;;;;;2.43;1.80;;;;;;;18.42;73.85;97922.28;5074291;28;20228;-76
2023/08/31 10:41:06;;;;;;;3.83;1.80;;;;;;;18.49;59.37;97924.69;5076273;28;20207;-75
2023/08/31 10:43:57;;;;;;;3.53;2.00;;;;;;;18.34;59.66;97916.66;5077076;28;20212;-76
2023/08/31 10:46:26;;;;;;;3.83;2.10;;;;;;;18.07;60.25;97922.31;5074503;28;20192;-76
2023/08/31 10:49:14;;;;;;;4.40;2.00;;;;;;;18.02;66.25;97922.31;5074570;28;20613;-76
2023/08/31 10:51:46;;;;;;;10.17;2.20;;;;;;;18.03;64.39;97918.53;5074125;28;20185;-76
2023/08/31 10:54:21;;;;;;;6.10;2.10;;;;;;;18.08;61.51;97921.22;5074451;28;20694;-76
2023/08/31 10:57:00;;;;;;;4.03;2.10;;;;;;;18.01;60.44;97922.56;5074021;28;20570;-76
2023/08/31 10:59:41;;;;;;;5.23;2.33;;;;;;;18.02;60.39;97913.44;5073899;28;20730;-76
2023/08/31 11:02:08;;;;;;;4.83;2.40;;;;;;;18.20;61.59;97921.78;5074374;28;20199;-76
2023/08/31 11:04:55;;;;;;;6.50;2.10;;;;;;;17.96;59.36;97925.28;5074200;28;20208;-76
2023/08/31 11:07:25;;;;;;;4.37;2.00;;;;;;;17.96;62.38;97917.19;5074258;28;20189;-76
2023/08/31 11:09:52;;;;;;;4.80;2.10;;;;;;;17.97;61.50;97916.13;5074209;28;20224;-76
2023/08/31 11:12:23;;;;;;;4.63;2.00;;;;;;;17.85;61.74;97921.75;5073706;28;20644;-76
2023/08/31 11:14:49;;;;;;;3.92;2.40;;;;;;;17.91;62.21;97914.50;5073264;28;20883;-76
2023/08/31 11:17:16;;;;;;;6.03;2.10;;;;;;;18.00;68.63;97915.59;5073929;28;20224;-76
2023/08/31 11:19:42;;;;;;;6.07;2.30;;;;;;;18.05;62.52;97929.81;5073812;28;20715;-76
2023/08/31 11:22:09;;;;;;;3.77;2.00;;;;;;;17.89;62.31;97922.03;5074224;28;20204;-76
2023/08/31 11:24:36;;;;;;;6.20;2.57;;;;;;;18.05;64.56;97919.06;5074037;28;20247;-74
2023/08/31 11:27:03;;;;;;;8.33;2.43;;;;;;;18.16;63.32;97918.00;5074274;28;20218;-76
2023/08/31 11:29:30;;;;;;;4.00;2.20;;;;;;;18.26;60.82;97926.06;5073034;28;20263;-76